sensor_id;sensor_type;location;lat;lon;timestamp;P1;durP1;ratioP1;P2;durP2;ratioP2
38937;SDS011;24727;51.974;20.868;2023-02-22T00:01:30;18.08;;;5.63;;
38937;SDS011;24727;51.974;20.868;2023-02-22T00:04:14;18.27;;;5.30;;
38937;SDS011;24727;51.974;20.868;2023-02-22T00:06:45;19.75;;;6.93;;
38937;SDS011;24727;51.974;20.868;2023-02-22T00:09:13;20.73;;;6.00;;
38937;SDS011;24727;51.974;20.868;2023-02-22T00:11:45;25.02;;;8.52;;
38937;SDS011;24727;51.974;20.868;2023-02-22T00:14:11;19.63;;;6.13;;
38937;SDS011;24727;51.974;20.868;2023-02-22T00:16:37;19.70;;;5.78;;
38937;SDS011;24727;51.974;20.868;2023-02-22T00:19:03;25.27;;;6.07;;
38937;SDS011;24727;51.974;20.868;2023-02-22T00:21:30;28.63;;;7.40;;
38937;SDS011;24727;51.974;20.868;2023-02-22T00:23:55;23.58;;;6.63;;
38937;SDS011;24727;51.974;20.868;2023-02-22T00:26:21;26.13;;;7.55;;
38937;SDS011;24727;51.974;20.868;2023-02-22T00:28:49;21.48;;;7.05;;
38937;SDS011;24727;51.974;20.868;2023-02-22T00:31:17;24.48;;;6.95;;
38937;SDS011;24727;51.974;20.868;2023-02-22T00:33:44;30.55;;;6.72;;
38937;SDS011;24727;51.974;20.868;2023-02-22T00:36:11;28.50;;;6.68;;
38937;SDS011;24727;51.974;20.868;2023-02-22T00:38:40;29.38;;;6.30;;
38937;SDS011;24727;51.974;20.868;2023-02-22T00:41:07;22.10;;;5.85;;
38937;SDS011;24727;51.974;20.868;2023-02-22T00:43:33;22.52;;;6.32;;
38937;SDS011;24727;51.974;20.868;2023-02-22T00:45:59;26.58;;;5.63;;
38937;SDS011;24727;51.974;20.868;2023-02-22T00:48:25;33.70;;;6.32;;
38937;SDS011;24727;51.974;20.868;2023-02-22T00:50:52;20.30;;;5.28;;
38937;SDS011;24727;51.974;20.868;2023-02-22T00:53:19;17.88;;;5.18;;
38937;SDS011;24727;51.974;20.868;2023-02-22T00:55:47;27.58;;;6.60;;
38937;SDS011;24727;51.974;20.868;2023-02-22T00:58:14;19.15;;;4.75;;
38937;SDS011;24727;51.974;20.868;2023-02-22T01:00:41;19.90;;;5.65;;
38937;SDS011;24727;51.974;20.868;2023-02-22T01:03:08;15.55;;;5.82;;
38937;SDS011;24727;51.974;20.868;2023-02-22T01:05:36;21.63;;;4.82;;
38937;SDS011;24727;51.974;20.868;2023-02-22T01:08:03;25.48;;;8.48;;
38937;SDS011;24727;51.974;20.868;2023-02-22T01:10:33;20.65;;;4.80;;
38937;SDS011;24727;51.974;20.868;2023-02-22T01:13:01;19.98;;;5.78;;
38937;SDS011;24727;51.974;20.868;2023-02-22T01:15:33;17.23;;;5.60;;
38937;SDS011;24727;51.974;20.868;2023-02-22T01:18:01;20.65;;;4.35;;
38937;SDS011;24727;51.974;20.868;2023-02-22T01:20:30;26.17;;;7.07;;
38937;SDS011;24727;51.974;20.868;2023-02-22T01:22:58;23.70;;;5.93;;
38937;SDS011;24727;51.974;20.868;2023-02-22T01:25:28;14.30;;;5.03;;
38937;SDS011;24727;51.974;20.868;2023-02-22T01:27:57;21.10;;;6.88;;
38937;SDS011;24727;51.974;20.868;2023-02-22T01:30:26;18.35;;;5.63;;
38937;SDS011;24727;51.974;20.868;2023-02-22T01:32:55;16.98;;;5.50;;
38937;SDS011;24727;51.974;20.868;2023-02-22T01:35:22;19.27;;;5.45;;
38937;SDS011;24727;51.974;20.868;2023-02-22T01:37:52;13.73;;;4.50;;
38937;SDS011;24727;51.974;20.868;2023-02-22T01:40:23;22.38;;;5.63;;
38937;SDS011;24727;51.974;20.868;2023-02-22T01:42:53;18.27;;;4.85;;
38937;SDS011;24727;51.974;20.868;2023-02-22T01:47:59;22.00;;;5.45;;
38937;SDS011;24727;51.974;20.868;2023-02-22T01:53:40;16.30;;;5.03;;
38937;SDS011;24727;51.974;20.868;2023-02-22T01:56:17;15.35;;;4.82;;
38937;SDS011;24727;51.974;20.868;2023-02-22T01:58:47;14.48;;;4.55;;
38937;SDS011;24727;51.974;20.868;2023-02-22T02:01:16;18.23;;;5.17;;
38937;SDS011;24727;51.974;20.868;2023-02-22T02:03:44;17.92;;;4.43;;
38937;SDS011;24727;51.974;20.868;2023-02-22T02:06:12;15.75;;;4.70;;
38937;SDS011;24727;51.974;20.868;2023-02-22T02:08:58;14.32;;;3.88;;
38937;SDS011;24727;51.974;20.868;2023-02-22T02:11:30;13.80;;;3.60;;
38937;SDS011;24727;51.974;20.868;2023-02-22T02:13:59;13.35;;;4.13;;
38937;SDS011;24727;51.974;20.868;2023-02-22T02:16:26;14.13;;;5.05;;
38937;SDS011;24727;51.974;20.868;2023-02-22T02:19:03;11.70;;;3.85;;
38937;SDS011;24727;51.974;20.868;2023-02-22T02:24:34;20.38;;;4.10;;
38937;SDS011;24727;51.974;20.868;2023-02-22T02:27:29;9.43;;;3.45;;
38937;SDS011;24727;51.974;20.868;2023-02-22T02:30:27;12.98;;;3.90;;
38937;SDS011;24727;51.974;20.868;2023-02-22T02:43:57;9.70;;;2.80;;
38937;SDS011;24727;51.974;20.868;2023-02-22T02:49:11;12.60;;;3.45;;
38937;SDS011;24727;51.974;20.868;2023-02-22T02:51:46;16.60;;;3.80;;
38937;SDS011;24727;51.974;20.868;2023-02-22T02:54:14;11.35;;;3.30;;
38937;SDS011;24727;51.974;20.868;2023-02-22T02:56:41;17.33;;;4.20;;
38937;SDS011;24727;51.974;20.868;2023-02-22T03:05:06;10.55;;;3.13;;
38937;SDS011;24727;51.974;20.868;2023-02-22T03:16:41;11.95;;;3.53;;
38937;SDS011;24727;51.974;20.868;2023-02-22T03:19:42;12.25;;;2.97;;
38937;SDS011;24727;51.974;20.868;2023-02-22T03:22:36;10.05;;;3.75;;
38937;SDS011;24727;51.974;20.868;2023-02-22T03:25:23;13.57;;;4.75;;
38937;SDS011;24727;51.974;20.868;2023-02-22T03:27:59;14.32;;;4.30;;
38937;SDS011;24727;51.974;20.868;2023-02-22T03:33:05;16.85;;;5.32;;
38937;SDS011;24727;51.974;20.868;2023-02-22T03:35:39;11.02;;;4.75;;
38937;SDS011;24727;51.974;20.868;2023-02-22T03:38:15;13.55;;;4.40;;
38937;SDS011;24727;51.974;20.868;2023-02-22T03:40:45;15.38;;;4.68;;
38937;SDS011;24727;51.974;20.868;2023-02-22T03:43:20;21.63;;;5.47;;
38937;SDS011;24727;51.974;20.868;2023-02-22T03:45:50;16.00;;;5.35;;
38937;SDS011;24727;51.974;20.868;2023-02-22T03:49:19;16.58;;;4.65;;
38937;SDS011;24727;51.974;20.868;2023-02-22T03:51:24;15.63;;;5.13;;
38937;SDS011;24727;51.974;20.868;2023-02-22T03:53:50;17.00;;;5.07;;
38937;SDS011;24727;51.974;20.868;2023-02-22T03:56:21;20.08;;;5.78;;
38937;SDS011;24727;51.974;20.868;2023-02-22T03:59:01;15.35;;;5.63;;
38937;SDS011;24727;51.974;20.868;2023-02-22T04:03:57;19.35;;;4.97;;
38937;SDS011;24727;51.974;20.868;2023-02-22T04:06:25;15.93;;;4.43;;
38937;SDS011;24727;51.974;20.868;2023-02-22T04:08:51;10.90;;;4.50;;
38937;SDS011;24727;51.974;20.868;2023-02-22T04:11:17;13.80;;;4.70;;
38937;SDS011;24727;51.974;20.868;2023-02-22T04:13:44;21.35;;;4.93;;
38937;SDS011;24727;51.974;20.868;2023-02-22T04:16:11;11.68;;;4.70;;
38937;SDS011;24727;51.974;20.868;2023-02-22T04:18:37;15.75;;;4.35;;
38937;SDS011;24727;51.974;20.868;2023-02-22T04:21:03;14.07;;;4.40;;
38937;SDS011;24727;51.974;20.868;2023-02-22T04:23:29;15.35;;;4.68;;
38937;SDS011;24727;51.974;20.868;2023-02-22T04:25:55;17.35;;;4.78;;
38937;SDS011;24727;51.974;20.868;2023-02-22T04:28:21;16.77;;;4.78;;
38937;SDS011;24727;51.974;20.868;2023-02-22T04:30:47;16.15;;;4.70;;
38937;SDS011;24727;51.974;20.868;2023-02-22T04:33:13;15.32;;;4.03;;
38937;SDS011;24727;51.974;20.868;2023-02-22T04:35:41;18.63;;;4.35;;
38937;SDS011;24727;51.974;20.868;2023-02-22T04:38:08;14.65;;;4.10;;
38937;SDS011;24727;51.974;20.868;2023-02-22T04:40:34;17.25;;;4.80;;
38937;SDS011;24727;51.974;20.868;2023-02-22T04:43:00;14.82;;;4.70;;
38937;SDS011;24727;51.974;20.868;2023-02-22T04:45:26;8.85;;;4.07;;
38937;SDS011;24727;51.974;20.868;2023-02-22T04:47:53;12.63;;;4.25;;
38937;SDS011;24727;51.974;20.868;2023-02-22T04:50:21;12.75;;;4.13;;
38937;SDS011;24727;51.974;20.868;2023-02-22T04:52:47;10.93;;;3.85;;
38937;SDS011;24727;51.974;20.868;2023-02-22T04:55:13;12.02;;;4.70;;
38937;SDS011;24727;51.974;20.868;2023-02-22T04:57:40;9.88;;;4.18;;
38937;SDS011;24727;51.974;20.868;2023-02-22T05:00:07;14.18;;;4.07;;
38937;SDS011;24727;51.974;20.868;2023-02-22T05:02:36;16.08;;;4.82;;
38937;SDS011;24727;51.974;20.868;2023-02-22T05:05:04;20.60;;;6.10;;
38937;SDS011;24727;51.974;20.868;2023-02-22T05:07:30;14.77;;;5.32;;
38937;SDS011;24727;51.974;20.868;2023-02-22T05:09:57;9.60;;;4.82;;
38937;SDS011;24727;51.974;20.868;2023-02-22T05:12:25;13.52;;;5.15;;
38937;SDS011;24727;51.974;20.868;2023-02-22T05:14:52;10.55;;;3.83;;
38937;SDS011;24727;51.974;20.868;2023-02-22T05:17:17;17.63;;;5.45;;
38937;SDS011;24727;51.974;20.868;2023-02-22T05:19:43;21.67;;;7.15;;
38937;SDS011;24727;51.974;20.868;2023-02-22T05:22:10;18.33;;;6.82;;
38937;SDS011;24727;51.974;20.868;2023-02-22T05:24:36;16.13;;;6.55;;
38937;SDS011;24727;51.974;20.868;2023-02-22T05:27:02;16.10;;;5.95;;
38937;SDS011;24727;51.974;20.868;2023-02-22T05:29:30;18.52;;;6.75;;
38937;SDS011;24727;51.974;20.868;2023-02-22T05:31:56;23.23;;;7.55;;
38937;SDS011;24727;51.974;20.868;2023-02-22T05:34:22;21.40;;;6.97;;
38937;SDS011;24727;51.974;20.868;2023-02-22T05:36:49;15.50;;;7.18;;
38937;SDS011;24727;51.974;20.868;2023-02-22T05:39:15;20.98;;;7.70;;
38937;SDS011;24727;51.974;20.868;2023-02-22T05:41:41;20.77;;;6.47;;
38937;SDS011;24727;51.974;20.868;2023-02-22T05:44:07;13.88;;;5.80;;
38937;SDS011;24727;51.974;20.868;2023-02-22T05:46:33;15.18;;;5.57;;
38937;SDS011;24727;51.974;20.868;2023-02-22T05:49:01;13.90;;;4.72;;
38937;SDS011;24727;51.974;20.868;2023-02-22T05:51:28;19.02;;;7.50;;
38937;SDS011;24727;51.974;20.868;2023-02-22T05:53:55;13.30;;;6.25;;
38937;SDS011;24727;51.974;20.868;2023-02-22T05:56:25;11.90;;;5.50;;
38937;SDS011;24727;51.974;20.868;2023-02-22T05:58:52;15.70;;;5.90;;
38937;SDS011;24727;51.974;20.868;2023-02-22T06:01:19;10.48;;;5.07;;
38937;SDS011;24727;51.974;20.868;2023-02-22T06:03:46;14.95;;;6.22;;
38937;SDS011;24727;51.974;20.868;2023-02-22T06:06:14;13.93;;;5.30;;
38937;SDS011;24727;51.974;20.868;2023-02-22T06:08:41;17.98;;;5.60;;
38937;SDS011;24727;51.974;20.868;2023-02-22T06:11:10;9.10;;;4.50;;
38937;SDS011;24727;51.974;20.868;2023-02-22T06:13:36;10.48;;;4.40;;
38937;SDS011;24727;51.974;20.868;2023-02-22T06:16:04;15.60;;;5.35;;
38937;SDS011;24727;51.974;20.868;2023-02-22T06:18:31;9.43;;;5.03;;
38937;SDS011;24727;51.974;20.868;2023-02-22T06:20:57;11.05;;;5.50;;
38937;SDS011;24727;51.974;20.868;2023-02-22T06:23:24;8.55;;;4.45;;
38937;SDS011;24727;51.974;20.868;2023-02-22T06:25:51;8.75;;;4.45;;
38937;SDS011;24727;51.974;20.868;2023-02-22T06:28:17;10.25;;;4.50;;
38937;SDS011;24727;51.974;20.868;2023-02-22T06:30:43;12.23;;;5.05;;
38937;SDS011;24727;51.974;20.868;2023-02-22T06:33:10;9.50;;;5.13;;
38937;SDS011;24727;51.974;20.868;2023-02-22T06:35:36;17.55;;;9.23;;
38937;SDS011;24727;51.974;20.868;2023-02-22T06:38:03;13.02;;;6.65;;
38937;SDS011;24727;51.974;20.868;2023-02-22T06:40:29;10.18;;;4.93;;
38937;SDS011;24727;51.974;20.868;2023-02-22T06:42:55;10.10;;;4.72;;
38937;SDS011;24727;51.974;20.868;2023-02-22T06:45:23;10.20;;;4.20;;
38937;SDS011;24727;51.974;20.868;2023-02-22T06:47:51;9.75;;;5.65;;
38937;SDS011;24727;51.974;20.868;2023-02-22T06:50:24;9.95;;;4.65;;
38937;SDS011;24727;51.974;20.868;2023-02-22T06:52:53;11.30;;;4.80;;
38937;SDS011;24727;51.974;20.868;2023-02-22T06:55:20;8.60;;;4.30;;
38937;SDS011;24727;51.974;20.868;2023-02-22T06:57:47;9.20;;;3.40;;
38937;SDS011;24727;51.974;20.868;2023-02-22T07:00:15;9.70;;;4.05;;
38937;SDS011;24727;51.974;20.868;2023-02-22T07:02:43;7.80;;;4.03;;
38937;SDS011;24727;51.974;20.868;2023-02-22T07:05:11;10.27;;;5.25;;
38937;SDS011;24727;51.974;20.868;2023-02-22T07:07:38;6.85;;;4.30;;
38937;SDS011;24727;51.974;20.868;2023-02-22T07:10:05;7.97;;;4.47;;
38937;SDS011;24727;51.974;20.868;2023-02-22T07:12:32;8.20;;;4.85;;
38937;SDS011;24727;51.974;20.868;2023-02-22T07:14:59;6.88;;;3.63;;
38937;SDS011;24727;51.974;20.868;2023-02-22T07:17:26;6.25;;;3.90;;
38937;SDS011;24727;51.974;20.868;2023-02-22T07:19:52;4.80;;;2.90;;
38937;SDS011;24727;51.974;20.868;2023-02-22T07:22:18;5.85;;;3.10;;
38937;SDS011;24727;51.974;20.868;2023-02-22T07:24:45;7.50;;;3.08;;
38937;SDS011;24727;51.974;20.868;2023-02-22T07:27:12;24.77;;;12.63;;
38937;SDS011;24727;51.974;20.868;2023-02-22T07:29:38;10.68;;;3.92;;
38937;SDS011;24727;51.974;20.868;2023-02-22T07:32:07;12.25;;;3.45;;
38937;SDS011;24727;51.974;20.868;2023-02-22T07:34:36;8.55;;;3.30;;
38937;SDS011;24727;51.974;20.868;2023-02-22T07:37:02;4.32;;;2.67;;
38937;SDS011;24727;51.974;20.868;2023-02-22T07:39:28;8.48;;;2.90;;
38937;SDS011;24727;51.974;20.868;2023-02-22T07:41:54;22.58;;;12.20;;
38937;SDS011;24727;51.974;20.868;2023-02-22T07:44:20;8.80;;;3.83;;
38937;SDS011;24727;51.974;20.868;2023-02-22T07:46:46;61.20;;;24.42;;
38937;SDS011;24727;51.974;20.868;2023-02-22T07:49:13;22.13;;;11.32;;
38937;SDS011;24727;51.974;20.868;2023-02-22T07:51:40;6.30;;;3.17;;
38937;SDS011;24727;51.974;20.868;2023-02-22T07:54:07;4.53;;;2.22;;
38937;SDS011;24727;51.974;20.868;2023-02-22T07:56:33;7.55;;;2.63;;
38937;SDS011;24727;51.974;20.868;2023-02-22T07:59:00;13.45;;;6.40;;
38937;SDS011;24727;51.974;20.868;2023-02-22T08:01:27;9.48;;;5.70;;
38937;SDS011;24727;51.974;20.868;2023-02-22T08:03:54;4.82;;;2.65;;
38937;SDS011;24727;51.974;20.868;2023-02-22T08:06:20;5.90;;;3.10;;
38937;SDS011;24727;51.974;20.868;2023-02-22T08:08:49;5.65;;;3.22;;
38937;SDS011;24727;51.974;20.868;2023-02-22T08:11:15;8.00;;;3.28;;
38937;SDS011;24727;51.974;20.868;2023-02-22T08:13:44;6.05;;;3.53;;
38937;SDS011;24727;51.974;20.868;2023-02-22T08:16:09;4.95;;;3.20;;
38937;SDS011;24727;51.974;20.868;2023-02-22T08:18:42;5.53;;;2.83;;
38937;SDS011;24727;51.974;20.868;2023-02-22T08:21:08;4.78;;;2.13;;
38937;SDS011;24727;51.974;20.868;2023-02-22T08:23:34;5.28;;;2.85;;
38937;SDS011;24727;51.974;20.868;2023-02-22T08:26:06;4.18;;;2.50;;
38937;SDS011;24727;51.974;20.868;2023-02-22T08:28:34;6.65;;;3.30;;
38937;SDS011;24727;51.974;20.868;2023-02-22T08:31:01;11.20;;;2.70;;
38937;SDS011;24727;51.974;20.868;2023-02-22T08:33:27;4.72;;;2.42;;
38937;SDS011;24727;51.974;20.868;2023-02-22T08:35:53;4.75;;;2.33;;
38937;SDS011;24727;51.974;20.868;2023-02-22T08:38:21;4.63;;;2.33;;
38937;SDS011;24727;51.974;20.868;2023-02-22T08:43:19;4.70;;;2.30;;
38937;SDS011;24727;51.974;20.868;2023-02-22T08:45:46;3.65;;;2.40;;
38937;SDS011;24727;51.974;20.868;2023-02-22T08:48:13;4.45;;;2.40;;
38937;SDS011;24727;51.974;20.868;2023-02-22T08:50:41;4.45;;;2.55;;
38937;SDS011;24727;51.974;20.868;2023-02-22T08:53:09;4.40;;;3.08;;
38937;SDS011;24727;51.974;20.868;2023-02-22T08:55:38;4.78;;;3.10;;
38937;SDS011;24727;51.974;20.868;2023-02-22T08:58:05;4.25;;;2.70;;
38937;SDS011;24727;51.974;20.868;2023-02-22T09:00:33;6.32;;;2.97;;
38937;SDS011;24727;51.974;20.868;2023-02-22T09:03:05;4.05;;;2.50;;
38937;SDS011;24727;51.974;20.868;2023-02-22T09:05:32;4.43;;;2.90;;
38937;SDS011;24727;51.974;20.868;2023-02-22T09:07:59;8.75;;;4.20;;
38937;SDS011;24727;51.974;20.868;2023-02-22T09:10:27;4.25;;;2.45;;
38937;SDS011;24727;51.974;20.868;2023-02-22T09:12:56;4.78;;;2.53;;
38937;SDS011;24727;51.974;20.868;2023-02-22T09:15:25;4.93;;;2.55;;
38937;SDS011;24727;51.974;20.868;2023-02-22T09:17:52;5.55;;;2.80;;
38937;SDS011;24727;51.974;20.868;2023-02-22T09:20:18;3.72;;;2.60;;
38937;SDS011;24727;51.974;20.868;2023-02-22T09:22:47;4.05;;;2.38;;
38937;SDS011;24727;51.974;20.868;2023-02-22T09:25:14;3.53;;;2.08;;
38937;SDS011;24727;51.974;20.868;2023-02-22T09:27:41;3.65;;;1.90;;
38937;SDS011;24727;51.974;20.868;2023-02-22T09:30:14;5.55;;;2.10;;
38937;SDS011;24727;51.974;20.868;2023-02-22T09:32:48;4.70;;;2.17;;
38937;SDS011;24727;51.974;20.868;2023-02-22T09:35:15;4.03;;;2.42;;
38937;SDS011;24727;51.974;20.868;2023-02-22T09:37:41;4.80;;;2.30;;
38937;SDS011;24727;51.974;20.868;2023-02-22T09:40:13;5.03;;;2.58;;
38937;SDS011;24727;51.974;20.868;2023-02-22T09:42:51;14.77;;;6.90;;
38937;SDS011;24727;51.974;20.868;2023-02-22T09:45:36;14.00;;;6.05;;
38937;SDS011;24727;51.974;20.868;2023-02-22T09:48:13;5.18;;;2.92;;
38937;SDS011;24727;51.974;20.868;2023-02-22T09:50:41;7.88;;;3.38;;
38937;SDS011;24727;51.974;20.868;2023-02-22T09:53:17;5.15;;;3.25;;
38937;SDS011;24727;51.974;20.868;2023-02-22T09:56:00;4.93;;;2.97;;
38937;SDS011;24727;51.974;20.868;2023-02-22T10:03:43;11.45;;;5.97;;
38937;SDS011;24727;51.974;20.868;2023-02-22T10:06:32;12.73;;;5.82;;
38937;SDS011;24727;51.974;20.868;2023-02-22T10:09:00;12.40;;;5.03;;
38937;SDS011;24727;51.974;20.868;2023-02-22T10:17:18;7.50;;;3.83;;
38937;SDS011;24727;51.974;20.868;2023-02-22T10:23:12;7.68;;;3.38;;
38937;SDS011;24727;51.974;20.868;2023-02-22T10:25:44;6.55;;;3.45;;
38937;SDS011;24727;51.974;20.868;2023-02-22T10:28:19;18.52;;;8.18;;
38937;SDS011;24727;51.974;20.868;2023-02-22T10:30:51;19.10;;;8.38;;
38937;SDS011;24727;51.974;20.868;2023-02-22T10:33:22;10.50;;;4.80;;
38937;SDS011;24727;51.974;20.868;2023-02-22T10:35:51;6.47;;;3.33;;
38937;SDS011;24727;51.974;20.868;2023-02-22T10:38:23;5.90;;;3.47;;
38937;SDS011;24727;51.974;20.868;2023-02-22T10:43:27;5.90;;;2.60;;
38937;SDS011;24727;51.974;20.868;2023-02-22T10:45:57;12.48;;;5.50;;
38937;SDS011;24727;51.974;20.868;2023-02-22T10:48:33;11.73;;;4.65;;
38937;SDS011;24727;51.974;20.868;2023-02-22T10:51:03;9.32;;;3.90;;
38937;SDS011;24727;51.974;20.868;2023-02-22T10:53:33;6.80;;;3.58;;
38937;SDS011;24727;51.974;20.868;2023-02-22T10:56:11;4.68;;;2.50;;
38937;SDS011;24727;51.974;20.868;2023-02-22T10:58:45;11.88;;;4.65;;
38937;SDS011;24727;51.974;20.868;2023-02-22T11:04:42;4.57;;;2.47;;
38937;SDS011;24727;51.974;20.868;2023-02-22T11:06:47;6.50;;;3.63;;
38937;SDS011;24727;51.974;20.868;2023-02-22T11:12:10;4.53;;;2.92;;
38937;SDS011;24727;51.974;20.868;2023-02-22T11:14:42;2.70;;;2.00;;
38937;SDS011;24727;51.974;20.868;2023-02-22T11:17:08;5.78;;;2.83;;
38937;SDS011;24727;51.974;20.868;2023-02-22T11:19:38;3.70;;;2.20;;
38937;SDS011;24727;51.974;20.868;2023-02-22T11:22:12;3.97;;;2.20;;
38937;SDS011;24727;51.974;20.868;2023-02-22T11:24:56;3.20;;;2.10;;
38937;SDS011;24727;51.974;20.868;2023-02-22T11:30:20;4.05;;;2.20;;
38937;SDS011;24727;51.974;20.868;2023-02-22T11:35:54;3.60;;;2.13;;
38937;SDS011;24727;51.974;20.868;2023-02-22T11:38:26;3.78;;;2.10;;
38937;SDS011;24727;51.974;20.868;2023-02-22T11:41:10;9.32;;;3.20;;
38937;SDS011;24727;51.974;20.868;2023-02-22T11:43:43;3.78;;;2.53;;
38937;SDS011;24727;51.974;20.868;2023-02-22T11:46:20;4.00;;;2.10;;
38937;SDS011;24727;51.974;20.868;2023-02-22T11:49:08;6.68;;;2.58;;
38937;SDS011;24727;51.974;20.868;2023-02-22T11:51:41;8.23;;;4.00;;
38937;SDS011;24727;51.974;20.868;2023-02-22T11:54:35;9.00;;;4.10;;
38937;SDS011;24727;51.974;20.868;2023-02-22T11:59:53;10.88;;;5.60;;
38937;SDS011;24727;51.974;20.868;2023-02-22T12:02:27;12.13;;;6.85;;
38937;SDS011;24727;51.974;20.868;2023-02-22T12:05:29;11.18;;;6.05;;
38937;SDS011;24727;51.974;20.868;2023-02-22T12:10:43;9.68;;;5.45;;
38937;SDS011;24727;51.974;20.868;2023-02-22T12:21:30;8.43;;;4.50;;
38937;SDS011;24727;51.974;20.868;2023-02-22T12:24:08;13.13;;;5.35;;
38937;SDS011;24727;51.974;20.868;2023-02-22T12:26:45;13.00;;;5.38;;
38937;SDS011;24727;51.974;20.868;2023-02-22T12:32:09;8.93;;;4.45;;
38937;SDS011;24727;51.974;20.868;2023-02-22T12:34:51;7.55;;;3.97;;
38937;SDS011;24727;51.974;20.868;2023-02-22T12:37:21;7.95;;;4.70;;
38937;SDS011;24727;51.974;20.868;2023-02-22T12:42:47;10.95;;;5.13;;
38937;SDS011;24727;51.974;20.868;2023-02-22T12:57:02;11.30;;;5.15;;
38937;SDS011;24727;51.974;20.868;2023-02-22T12:59:51;11.80;;;5.68;;
38937;SDS011;24727;51.974;20.868;2023-02-22T13:02:31;14.85;;;6.88;;
38937;SDS011;24727;51.974;20.868;2023-02-22T13:05:04;8.65;;;4.72;;
38937;SDS011;24727;51.974;20.868;2023-02-22T13:07:36;10.40;;;4.55;;
38937;SDS011;24727;51.974;20.868;2023-02-22T13:10:30;8.70;;;5.05;;
38937;SDS011;24727;51.974;20.868;2023-02-22T13:13:25;24.50;;;10.30;;
38937;SDS011;24727;51.974;20.868;2023-02-22T13:16:04;19.70;;;9.02;;
38937;SDS011;24727;51.974;20.868;2023-02-22T13:18:56;15.02;;;6.97;;
38937;SDS011;24727;51.974;20.868;2023-02-22T13:21:55;8.40;;;4.65;;
38937;SDS011;24727;51.974;20.868;2023-02-22T13:24:51;12.68;;;6.15;;
38937;SDS011;24727;51.974;20.868;2023-02-22T13:27:34;8.82;;;4.28;;
38937;SDS011;24727;51.974;20.868;2023-02-22T13:30:16;8.20;;;4.55;;
38937;SDS011;24727;51.974;20.868;2023-02-22T13:43:36;10.10;;;5.10;;
38937;SDS011;24727;51.974;20.868;2023-02-22T13:46:31;14.20;;;5.72;;
38937;SDS011;24727;51.974;20.868;2023-02-22T13:52:00;10.27;;;4.97;;
38937;SDS011;24727;51.974;20.868;2023-02-22T13:54:36;23.92;;;8.98;;
38937;SDS011;24727;51.974;20.868;2023-02-22T13:57:17;22.90;;;8.23;;
38937;SDS011;24727;51.974;20.868;2023-02-22T13:59:46;12.18;;;6.07;;
38937;SDS011;24727;51.974;20.868;2023-02-22T14:02:55;17.08;;;8.20;;
38937;SDS011;24727;51.974;20.868;2023-02-22T14:08:04;44.78;;;17.60;;
38937;SDS011;24727;51.974;20.868;2023-02-22T14:10:38;33.47;;;12.45;;
38937;SDS011;24727;51.974;20.868;2023-02-22T14:13:11;74.45;;;21.98;;
38937;SDS011;24727;51.974;20.868;2023-02-22T14:23:52;34.40;;;11.82;;
38937;SDS011;24727;51.974;20.868;2023-02-22T14:36:55;26.48;;;10.35;;
38937;SDS011;24727;51.974;20.868;2023-02-22T14:39:34;29.98;;;11.13;;
38937;SDS011;24727;51.974;20.868;2023-02-22T14:42:15;28.13;;;11.02;;
38937;SDS011;24727;51.974;20.868;2023-02-22T14:47:44;42.05;;;13.90;;
38937;SDS011;24727;51.974;20.868;2023-02-22T14:53:06;36.28;;;13.48;;
38937;SDS011;24727;51.974;20.868;2023-02-22T15:00:43;25.73;;;8.40;;
38937;SDS011;24727;51.974;20.868;2023-02-22T15:03:24;67.93;;;22.05;;
38937;SDS011;24727;51.974;20.868;2023-02-22T15:06:04;110.82;;;28.58;;
38937;SDS011;24727;51.974;20.868;2023-02-22T15:08:31;125.88;;;31.60;;
38937;SDS011;24727;51.974;20.868;2023-02-22T15:10:59;66.25;;;19.10;;
38937;SDS011;24727;51.974;20.868;2023-02-22T15:13:27;76.45;;;19.25;;
38937;SDS011;24727;51.974;20.868;2023-02-22T15:16:01;63.17;;;20.95;;
38937;SDS011;24727;51.974;20.868;2023-02-22T15:21:09;39.38;;;15.32;;
38937;SDS011;24727;51.974;20.868;2023-02-22T15:23:50;20.83;;;9.30;;
38937;SDS011;24727;51.974;20.868;2023-02-22T15:29:23;29.08;;;10.93;;
38937;SDS011;24727;51.974;20.868;2023-02-22T15:31:56;41.90;;;16.60;;
38937;SDS011;24727;51.974;20.868;2023-02-22T15:34:23;26.55;;;10.55;;
38937;SDS011;24727;51.974;20.868;2023-02-22T15:36:55;34.65;;;13.32;;
38937;SDS011;24727;51.974;20.868;2023-02-22T15:39:24;24.55;;;8.95;;
38937;SDS011;24727;51.974;20.868;2023-02-22T15:42:27;22.30;;;10.23;;
38937;SDS011;24727;51.974;20.868;2023-02-22T15:44:47;25.40;;;9.68;;
38937;SDS011;24727;51.974;20.868;2023-02-22T15:47:26;29.00;;;11.25;;
38937;SDS011;24727;51.974;20.868;2023-02-22T15:53:03;17.98;;;7.30;;
38937;SDS011;24727;51.974;20.868;2023-02-22T15:55:33;11.50;;;5.80;;
38937;SDS011;24727;51.974;20.868;2023-02-22T15:58:22;19.00;;;7.75;;
38937;SDS011;24727;51.974;20.868;2023-02-22T16:01:04;17.05;;;8.40;;
38937;SDS011;24727;51.974;20.868;2023-02-22T16:03:34;11.07;;;5.63;;
38937;SDS011;24727;51.974;20.868;2023-02-22T16:06:26;15.93;;;7.32;;
38937;SDS011;24727;51.974;20.868;2023-02-22T16:09:07;18.13;;;8.68;;
38937;SDS011;24727;51.974;20.868;2023-02-22T16:11:38;27.38;;;10.85;;
38937;SDS011;24727;51.974;20.868;2023-02-22T16:14:23;38.55;;;14.98;;
38937;SDS011;24727;51.974;20.868;2023-02-22T16:16:49;74.40;;;25.85;;
38937;SDS011;24727;51.974;20.868;2023-02-22T16:20:00;49.15;;;16.85;;
38937;SDS011;24727;51.974;20.868;2023-02-22T16:22:34;22.40;;;10.27;;
38937;SDS011;24727;51.974;20.868;2023-02-22T16:27:53;18.73;;;8.52;;
38937;SDS011;24727;51.974;20.868;2023-02-22T16:30:27;13.23;;;7.30;;
38937;SDS011;24727;51.974;20.868;2023-02-22T16:33:01;14.52;;;6.63;;
38937;SDS011;24727;51.974;20.868;2023-02-22T16:35:30;16.77;;;6.22;;
38937;SDS011;24727;51.974;20.868;2023-02-22T16:38:04;14.32;;;6.68;;
38937;SDS011;24727;51.974;20.868;2023-02-22T16:40:44;24.13;;;10.60;;
38937;SDS011;24727;51.974;20.868;2023-02-22T16:43:17;27.35;;;11.80;;
38937;SDS011;24727;51.974;20.868;2023-02-22T16:45:46;25.05;;;12.18;;
38937;SDS011;24727;51.974;20.868;2023-02-22T16:48:14;20.25;;;8.50;;
38937;SDS011;24727;51.974;20.868;2023-02-22T16:50:45;21.92;;;10.40;;
38937;SDS011;24727;51.974;20.868;2023-02-22T16:53:13;23.95;;;10.55;;
38937;SDS011;24727;51.974;20.868;2023-02-22T16:55:44;22.42;;;10.50;;
38937;SDS011;24727;51.974;20.868;2023-02-22T16:58:14;20.30;;;8.98;;
38937;SDS011;24727;51.974;20.868;2023-02-22T17:00:42;27.73;;;11.43;;
38937;SDS011;24727;51.974;20.868;2023-02-22T17:03:18;32.28;;;14.40;;
38937;SDS011;24727;51.974;20.868;2023-02-22T17:05:46;22.58;;;12.75;;
38937;SDS011;24727;51.974;20.868;2023-02-22T17:08:12;16.75;;;8.48;;
38937;SDS011;24727;51.974;20.868;2023-02-22T17:10:41;20.90;;;9.98;;
38937;SDS011;24727;51.974;20.868;2023-02-22T17:13:09;13.18;;;6.97;;
38937;SDS011;24727;51.974;20.868;2023-02-22T17:15:37;15.23;;;6.85;;
38937;SDS011;24727;51.974;20.868;2023-02-22T17:18:14;9.60;;;5.70;;
38937;SDS011;24727;51.974;20.868;2023-02-22T17:20:47;9.48;;;4.60;;
38937;SDS011;24727;51.974;20.868;2023-02-22T17:23:15;11.10;;;5.68;;
38937;SDS011;24727;51.974;20.868;2023-02-22T17:25:43;17.13;;;7.82;;
38937;SDS011;24727;51.974;20.868;2023-02-22T17:28:15;9.45;;;5.20;;
38937;SDS011;24727;51.974;20.868;2023-02-22T17:30:47;18.63;;;7.88;;